Terminal Aerodrome Forecast
Issued by NWS Houston/Galveston TX

Home | Current Version | Previous Version | Text Only | Print | Product List | Glossary On
Versions: 1 2 3 4 5 6 7 8 9 10 11 12 13 14 15 16 17 18 19 20 21 22 23 24 25 26 27 28 29 30 31 32 33 34 35 36 37 38 39 40 41 42 43 44 45 46 47 48 49 50
742
FTUS44 KHGX 291502 AAA
TAFHOU
TAF AMD
KHOU 291502Z 2915/3012 10004KT P6SM SCT015 BKN120
     FM291600 13007KT P6SM SCT025 SCT150
     FM291900 15008KT P6SM SCT035 SCT250
     FM300100 14007KT P6SM SCT250
     FM300900 00000KT P6SM MIFG SCT015=

USA.gov is the U.S. government's official web portal to all federal, state and local government web resources and services.